createdAt,value
2023-01-18T00:01:11.406Z,11.77
2023-01-18T00:03:38.896Z,13.20
2023-01-18T00:06:09.037Z,14.20
2023-01-18T00:08:37.877Z,14.13
2023-01-18T00:11:06.482Z,13.83
2023-01-18T00:13:33.222Z,11.50
2023-01-18T00:16:10.625Z,12.03
2023-01-18T00:18:37.027Z,11.93
2023-01-18T00:21:07.887Z,13.33
2023-01-18T00:23:34.864Z,12.43
2023-01-18T00:26:08.087Z,12.73
2023-01-18T00:28:35.025Z,11.57
2023-01-18T00:31:08.593Z,12.03
2023-01-18T00:33:34.766Z,12.53
2023-01-18T00:36:03.537Z,12.93
2023-01-18T00:38:30.237Z,13.67
2023-01-18T00:40:56.949Z,13.20
2023-01-18T00:43:38.995Z,12.67
2023-01-18T00:46:12.210Z,11.20
2023-01-18T00:48:40.224Z,13.03
2023-01-18T00:51:17.387Z,10.80
2023-01-18T00:53:44.210Z,12.43
2023-01-18T00:56:14.561Z,10.33
2023-01-18T00:58:41.029Z,10.77
2023-01-18T01:01:09.298Z,12.20
2023-01-18T01:03:55.804Z,11.10
2023-01-18T01:06:43.707Z,10.73
2023-01-18T01:09:24.535Z,10.77
2023-01-18T01:12:11.239Z,11.83
2023-01-18T01:15:01.899Z,10.60
2023-01-18T01:17:48.697Z,10.70
2023-01-18T01:20:34.150Z,11.00
2023-01-18T01:23:39.485Z,10.83
2023-01-18T01:26:10.121Z,10.10
2023-01-18T01:28:45.559Z,12.03
2023-01-18T01:31:17.508Z,11.07
2023-01-18T01:33:45.257Z,11.97
2023-01-18T01:36:15.193Z,10.60
2023-01-18T01:38:41.842Z,11.03
2023-01-18T01:41:32.962Z,12.27
2023-01-18T01:44:17.701Z,10.30
2023-01-18T01:46:51.809Z,10.90
2023-01-18T01:49:31.324Z,10.53
2023-01-18T01:52:10.802Z,10.87
2023-01-18T01:54:39.585Z,11.43
2023-01-18T01:57:22.011Z,11.37
2023-01-18T02:00:22.505Z,11.50
2023-01-18T02:02:59.501Z,11.43
2023-01-18T02:05:28.828Z,10.90
2023-01-18T02:08:00.233Z,10.53
2023-01-18T02:10:27.834Z,12.13
2023-01-18T02:12:56.366Z,11.13
2023-01-18T02:15:33.852Z,12.17
2023-01-18T02:18:53.842Z,11.83
2023-01-18T02:21:44.941Z,11.40
2023-01-18T02:24:32.587Z,12.27
2023-01-18T02:27:31.109Z,11.27
2023-01-18T02:30:14.019Z,10.27
2023-01-18T02:33:14.226Z,12.33
2023-01-18T02:35:46.621Z,13.97
2023-01-18T02:38:41.110Z,13.57
2023-01-18T02:42:02.171Z,11.63
2023-01-18T02:45:00.156Z,12.43
2023-01-18T02:47:29.152Z,11.77
2023-01-18T02:49:56.902Z,12.67
2023-01-18T02:52:42.925Z,13.67
2023-01-18T02:55:30.867Z,11.10
2023-01-18T02:58:07.205Z,13.30
2023-01-18T03:00:40.497Z,11.80
2023-01-18T03:03:11.526Z,12.40
2023-01-18T03:05:40.526Z,11.70
2023-01-18T03:08:25.402Z,11.27
2023-01-18T03:11:01.417Z,10.37
2023-01-18T03:14:07.585Z,11.87
2023-01-18T03:17:01.238Z,10.70
2023-01-18T03:20:08.680Z,12.13
2023-01-18T03:23:18.587Z,11.53
2023-01-18T03:25:49.000Z,11.33
2023-01-18T03:28:47.974Z,12.33
2023-01-18T03:31:45.788Z,13.17
2023-01-18T03:34:54.131Z,11.70
2023-01-18T03:37:32.727Z,13.27
2023-01-18T03:40:16.032Z,11.40
2023-01-18T03:43:09.922Z,11.57
2023-01-18T03:45:45.344Z,11.70
2023-01-18T03:48:12.306Z,11.33
2023-01-18T03:50:56.394Z,11.87
2023-01-18T03:53:53.891Z,11.50
2023-01-18T03:56:57.467Z,12.17
2023-01-18T03:59:29.229Z,12.37
2023-01-18T04:01:55.875Z,12.27
2023-01-18T04:04:22.307Z,12.03
2023-01-18T04:06:48.678Z,12.27
2023-01-18T04:09:14.828Z,12.80
2023-01-18T04:11:41.015Z,12.87
2023-01-18T04:14:07.439Z,12.90
2023-01-18T04:16:33.810Z,12.53
2023-01-18T04:19:00.006Z,12.97
2023-01-18T04:21:26.189Z,12.83
2023-01-18T04:23:52.507Z,12.67
2023-01-18T04:26:18.683Z,11.83
2023-01-18T04:28:44.966Z,11.87
2023-01-18T04:31:11.380Z,12.50
2023-01-18T04:33:37.733Z,11.17
2023-01-18T04:36:04.293Z,9.97
2023-01-18T04:38:30.763Z,11.07
2023-01-18T04:41:05.767Z,11.23
2023-01-18T04:43:32.003Z,10.97
2023-01-18T04:45:58.572Z,10.77
2023-01-18T04:48:25.242Z,10.43
2023-01-18T04:50:51.824Z,11.80
2023-01-18T04:53:18.307Z,11.30
2023-01-18T04:55:44.952Z,11.03
2023-01-18T04:58:11.239Z,12.27
2023-01-18T05:00:39.255Z,11.50
2023-01-18T05:03:11.116Z,11.77
2023-01-18T05:05:37.910Z,13.13
2023-01-18T05:08:04.195Z,11.97
2023-01-18T05:10:32.770Z,12.90
2023-01-18T05:12:59.656Z,12.50
2023-01-18T05:15:26.049Z,12.43
2023-01-18T05:17:52.217Z,11.57
2023-01-18T05:20:18.432Z,12.00
2023-01-18T05:22:44.607Z,13.70
2023-01-18T05:25:11.007Z,13.60
2023-01-18T05:27:37.187Z,11.53
2023-01-18T05:30:06.543Z,12.47
2023-01-18T05:32:32.994Z,11.40
2023-01-18T05:34:59.135Z,12.10
2023-01-18T05:37:25.257Z,11.43
2023-01-18T05:39:51.577Z,11.73
2023-01-18T05:42:17.726Z,11.37
2023-01-18T05:44:44.093Z,14.20
2023-01-18T05:47:10.496Z,13.90
2023-01-18T05:49:36.610Z,11.93
2023-01-18T05:52:03.294Z,12.97
2023-01-18T05:54:29.418Z,12.20
2023-01-18T05:56:55.806Z,12.43
2023-01-18T05:59:22.205Z,12.13
2023-01-18T06:01:48.698Z,13.13
2023-01-18T06:04:15.120Z,12.60
2023-01-18T06:06:41.484Z,12.77
2023-01-18T06:09:07.874Z,13.27
2023-01-18T06:11:34.053Z,12.87
2023-01-18T06:14:00.240Z,13.53
2023-01-18T06:16:26.529Z,13.07
2023-01-18T06:18:52.669Z,11.93
2023-01-18T06:21:18.836Z,12.60
2023-01-18T06:23:45.205Z,12.60
2023-01-18T06:26:11.344Z,13.17
2023-01-18T06:28:37.754Z,12.67
2023-01-18T06:31:07.267Z,11.73
2023-01-18T06:33:34.056Z,12.17
2023-01-18T06:36:00.713Z,12.97
2023-01-18T06:38:27.079Z,15.30
2023-01-18T06:40:53.426Z,15.43
2023-01-18T06:43:19.845Z,16.30
2023-01-18T06:45:53.406Z,14.97
2023-01-18T06:48:21.209Z,13.13
2023-01-18T06:50:48.013Z,13.63
2023-01-18T06:53:14.143Z,13.67
2023-01-18T06:55:40.453Z,12.23
2023-01-18T06:58:06.605Z,13.67
2023-01-18T07:00:33.407Z,12.97
2023-01-18T07:02:59.861Z,12.83
2023-01-18T07:05:26.524Z,13.93
2023-01-18T07:07:52.667Z,13.60
2023-01-18T07:10:18.877Z,13.57
2023-01-18T07:12:47.827Z,12.97
2023-01-18T07:15:21.607Z,12.00
2023-01-18T07:17:49.680Z,11.97
2023-01-18T07:20:16.461Z,12.93
2023-01-18T07:22:42.584Z,12.37
2023-01-18T07:25:12.529Z,12.33
2023-01-18T07:27:42.386Z,11.63
2023-01-18T07:30:12.440Z,11.87
2023-01-18T07:32:39.093Z,13.30
2023-01-18T07:35:06.018Z,11.90
2023-01-18T07:37:35.469Z,11.10
2023-01-18T07:40:02.398Z,11.37
2023-01-18T07:42:28.567Z,11.13
2023-01-18T07:44:54.911Z,12.20
2023-01-18T07:47:21.240Z,14.63
2023-01-18T07:49:47.388Z,13.87
2023-01-18T07:52:13.536Z,13.77
2023-01-18T07:54:39.752Z,21.60
2023-01-18T07:57:05.923Z,14.30
2023-01-18T07:59:32.724Z,12.50
2023-01-18T08:01:59.637Z,13.87
2023-01-18T08:04:25.810Z,14.53
2023-01-18T08:06:51.942Z,13.00
2023-01-18T08:09:19.380Z,12.53
2023-01-18T08:11:45.509Z,12.07
2023-01-18T08:14:11.683Z,13.07
2023-01-18T08:16:37.832Z,18.43
2023-01-18T08:19:04.138Z,13.47
2023-01-18T08:21:31.215Z,12.47
2023-01-18T08:23:57.392Z,11.57
2023-01-18T08:26:23.563Z,12.97
2023-01-18T08:28:49.706Z,12.13
2023-01-18T08:31:19.757Z,13.60
2023-01-18T08:33:48.176Z,12.33
2023-01-18T08:36:22.358Z,13.83
2023-01-18T08:38:56.078Z,12.67
2023-01-18T08:41:27.741Z,12.33
2023-01-18T08:43:56.169Z,13.17
2023-01-18T08:46:23.526Z,13.53
2023-01-18T08:48:58.662Z,13.07
2023-01-18T08:51:25.268Z,13.03
2023-01-18T08:53:53.565Z,13.17
2023-01-18T08:56:20.396Z,11.70
2023-01-18T08:58:46.978Z,13.43
2023-01-18T09:01:13.111Z,13.83
2023-01-18T09:03:39.343Z,13.43
2023-01-18T09:06:10.545Z,13.50
2023-01-18T09:08:37.976Z,12.50
2023-01-18T09:11:10.085Z,12.93
2023-01-18T09:13:43.124Z,13.83
2023-01-18T09:16:22.225Z,15.13
2023-01-18T09:18:51.392Z,16.37
2023-01-18T09:21:17.697Z,16.40
2023-01-18T09:23:44.881Z,15.83
2023-01-18T09:26:19.414Z,17.00
2023-01-18T09:28:52.163Z,13.73
2023-01-18T09:31:22.170Z,13.93
2023-01-18T09:33:53.554Z,14.77
2023-01-18T09:36:25.801Z,14.83
2023-01-18T09:38:54.210Z,14.50
2023-01-18T09:41:35.157Z,15.40
2023-01-18T09:44:29.327Z,14.80
2023-01-18T09:47:42.604Z,15.73
2023-01-18T09:50:18.206Z,14.90
2023-01-18T09:53:22.964Z,15.13
2023-01-18T09:55:59.812Z,15.63
2023-01-18T09:58:40.902Z,17.47
2023-01-18T10:01:31.730Z,17.40
2023-01-18T10:04:32.078Z,18.17
2023-01-18T10:07:04.115Z,17.77
2023-01-18T10:09:45.612Z,19.30
2023-01-18T10:12:46.094Z,21.53
2023-01-18T10:15:24.649Z,17.07
2023-01-18T10:17:56.818Z,16.30
2023-01-18T10:20:33.153Z,16.33
2023-01-18T10:23:08.674Z,16.37
2023-01-18T10:25:51.910Z,18.40
2023-01-18T10:28:26.908Z,18.73
2023-01-18T10:31:49.872Z,25.57
2023-01-18T10:34:23.334Z,22.83
2023-01-18T10:37:14.149Z,22.13
2023-01-18T10:39:51.070Z,20.83
2023-01-18T10:42:46.229Z,20.77
2023-01-18T10:45:21.358Z,21.00
2023-01-18T10:47:54.681Z,22.50
2023-01-18T10:50:52.333Z,21.10
2023-01-18T10:53:34.604Z,17.93
2023-01-18T10:56:18.948Z,17.80
2023-01-18T10:58:58.745Z,15.70
2023-01-18T11:01:35.522Z,19.27
2023-01-18T11:04:19.934Z,17.37
2023-01-18T11:06:50.172Z,17.97
2023-01-18T11:10:01.579Z,16.90
2023-01-18T11:12:47.160Z,17.87
2023-01-18T11:15:13.248Z,17.10
2023-01-18T11:17:57.207Z,17.30
2023-01-18T11:20:49.977Z,17.83
2023-01-18T11:23:24.693Z,18.93
2023-01-18T11:26:00.914Z,19.10
2023-01-18T11:28:43.296Z,19.07
2023-01-18T11:31:15.093Z,20.07
2023-01-18T11:33:50.669Z,22.03
2023-01-18T11:36:20.174Z,22.33
2023-01-18T11:38:47.328Z,22.63
2023-01-18T11:41:19.412Z,21.17
2023-01-18T11:44:16.780Z,20.80
2023-01-18T11:46:52.446Z,21.13
2023-01-18T11:49:27.964Z,22.20
2023-01-18T11:52:01.007Z,23.67
2023-01-18T11:54:46.236Z,22.47
2023-01-18T11:57:13.563Z,22.17
2023-01-18T11:59:45.036Z,20.43
2023-01-18T12:02:55.465Z,20.53
2023-01-18T12:05:52.160Z,19.97
2023-01-18T12:08:46.138Z,19.23
2023-01-18T12:12:01.382Z,19.07
2023-01-18T12:14:54.047Z,19.93
2023-01-18T12:18:11.742Z,19.87
2023-01-18T12:21:02.881Z,19.27
2023-01-18T12:24:08.385Z,19.43
2023-01-18T12:26:54.787Z,18.80
2023-01-18T12:29:59.968Z,18.57
2023-01-18T12:33:01.549Z,19.27
2023-01-18T12:36:22.792Z,18.83
2023-01-18T12:38:55.265Z,19.23
2023-01-18T12:41:52.287Z,19.83
2023-01-18T12:44:57.451Z,19.70
2023-01-18T12:48:02.543Z,18.23
2023-01-18T12:50:36.174Z,18.53
2023-01-18T12:53:14.675Z,19.60
2023-01-18T12:55:47.850Z,18.50
2023-01-18T12:58:26.813Z,19.73
2023-01-18T13:01:01.986Z,18.83
2023-01-18T13:03:40.441Z,18.37
2023-01-18T13:06:09.132Z,19.03
2023-01-18T13:08:54.813Z,18.70
2023-01-18T13:11:30.323Z,19.30
2023-01-18T13:14:47.363Z,16.47
2023-01-18T13:18:04.089Z,16.77
2023-01-18T13:21:09.008Z,17.43
2023-01-18T13:24:10.584Z,16.30
2023-01-18T13:26:36.926Z,15.67
2023-01-18T13:29:09.635Z,17.00
2023-01-18T13:31:37.382Z,17.70
2023-01-18T13:34:03.934Z,16.77
2023-01-18T13:36:45.358Z,16.87
2023-01-18T13:39:18.844Z,17.00
2023-01-18T13:42:03.450Z,16.30
2023-01-18T13:44:43.648Z,15.73
2023-01-18T13:47:34.829Z,15.90
2023-01-18T13:50:01.495Z,15.53
2023-01-18T13:52:34.611Z,15.67
2023-01-18T13:55:30.355Z,15.17
2023-01-18T13:57:57.473Z,15.73
2023-01-18T14:00:25.894Z,14.90
2023-01-18T14:03:01.844Z,15.97
2023-01-18T14:05:44.141Z,15.03
2023-01-18T14:08:21.575Z,14.67
2023-01-18T14:10:53.000Z,14.80
2023-01-18T14:13:45.140Z,14.93
2023-01-18T14:16:37.570Z,15.00
2023-01-18T14:19:19.247Z,13.43
2023-01-18T14:21:57.179Z,14.33
2023-01-18T14:24:49.570Z,15.37
2023-01-18T14:27:22.387Z,13.47
2023-01-18T14:30:03.294Z,14.67
2023-01-18T14:32:36.927Z,13.63
2023-01-18T14:35:25.439Z,13.80
2023-01-18T14:38:16.868Z,13.10
2023-01-18T14:40:47.601Z,12.57
2023-01-18T14:43:36.968Z,13.17
2023-01-18T14:46:16.089Z,13.03
2023-01-18T14:48:57.705Z,14.23
2023-01-18T14:51:27.622Z,13.63
2023-01-18T14:54:03.971Z,14.07
2023-01-18T14:56:40.842Z,13.10
2023-01-18T14:59:30.605Z,15.33
2023-01-18T15:02:13.580Z,13.93
2023-01-18T15:04:44.865Z,14.97
2023-01-18T15:07:33.625Z,13.50
2023-01-18T15:10:00.151Z,13.43
2023-01-18T15:12:31.993Z,12.73
2023-01-18T15:15:15.073Z,12.13
2023-01-18T15:17:42.394Z,12.77
2023-01-18T15:20:14.456Z,12.47
2023-01-18T15:22:42.439Z,13.10
2023-01-18T15:25:31.285Z,12.27
2023-01-18T15:28:14.812Z,11.63
2023-01-18T15:30:52.331Z,11.93
2023-01-18T15:33:22.363Z,12.07
2023-01-18T15:35:56.415Z,11.60
2023-01-18T15:38:22.672Z,12.80
2023-01-18T15:41:05.578Z,11.60
2023-01-18T15:43:42.929Z,11.40
2023-01-18T15:46:13.887Z,12.07
2023-01-18T15:48:56.973Z,10.73
2023-01-18T15:51:43.241Z,12.27
2023-01-18T15:54:18.849Z,12.40
2023-01-18T15:56:46.996Z,11.47
2023-01-18T15:59:24.862Z,12.63
2023-01-18T16:02:23.701Z,12.23
2023-01-18T16:05:21.003Z,10.97
2023-01-18T16:07:53.145Z,12.43
2023-01-18T16:10:29.522Z,13.27
2023-01-18T16:13:31.984Z,12.27
2023-01-18T16:16:19.295Z,11.20
2023-01-18T16:19:05.854Z,12.10
2023-01-18T16:21:56.956Z,13.67
2023-01-18T16:24:37.544Z,11.67
2023-01-18T16:27:29.898Z,12.83
2023-01-18T16:30:04.559Z,11.37
2023-01-18T16:32:33.876Z,11.30
2023-01-18T16:35:13.744Z,12.43
2023-01-18T16:37:41.495Z,10.47
2023-01-18T16:40:09.400Z,11.43
2023-01-18T16:43:00.463Z,10.37
2023-01-18T16:45:34.369Z,10.70
2023-01-18T16:48:01.018Z,10.93
2023-01-18T16:50:28.122Z,12.27
2023-01-18T16:52:55.152Z,12.27
2023-01-18T16:55:22.215Z,12.57
2023-01-18T16:57:49.993Z,10.73
2023-01-18T17:00:34.997Z,12.50
2023-01-18T17:03:01.179Z,11.73
2023-01-18T17:05:29.157Z,11.73
2023-01-18T17:07:55.392Z,12.23
2023-01-18T17:10:43.947Z,11.10
2023-01-18T17:13:10.495Z,11.30
2023-01-18T17:15:40.833Z,10.30
2023-01-18T17:18:23.161Z,10.40
2023-01-18T17:20:49.590Z,11.30
2023-01-18T17:23:16.540Z,11.07
2023-01-18T17:25:43.225Z,11.40
2023-01-18T17:28:16.545Z,12.10
2023-01-18T17:30:48.743Z,10.57
2023-01-18T17:33:19.817Z,11.67
2023-01-18T17:35:51.118Z,11.77
2023-01-18T17:38:24.398Z,11.60
2023-01-18T17:40:51.483Z,11.00
2023-01-18T17:43:28.463Z,11.80
2023-01-18T17:46:02.385Z,11.07
2023-01-18T17:48:28.964Z,11.07
2023-01-18T17:50:55.414Z,11.07
2023-01-18T17:53:21.589Z,10.40
2023-01-18T17:55:48.035Z,10.10
2023-01-18T17:58:14.325Z,10.97
2023-01-18T18:00:40.747Z,10.33
2023-01-18T18:03:07.434Z,11.17
2023-01-18T18:05:34.131Z,11.23
2023-01-18T18:08:00.362Z,9.47
2023-01-18T18:10:26.783Z,9.53
2023-01-18T18:12:52.991Z,8.77
2023-01-18T18:15:21.508Z,9.37
2023-01-18T18:17:47.695Z,9.63
2023-01-18T18:20:14.077Z,9.27
2023-01-18T18:22:40.624Z,9.50
2023-01-18T18:25:07.778Z,9.23
2023-01-18T18:27:44.764Z,8.20
2023-01-18T18:30:12.206Z,8.90
2023-01-18T18:32:38.357Z,9.10
2023-01-18T18:35:14.825Z,10.17
2023-01-18T18:37:49.743Z,9.63
2023-01-18T18:40:16.386Z,8.87
2023-01-18T18:42:45.300Z,8.80
2023-01-18T18:45:16.301Z,8.40
2023-01-18T18:47:42.687Z,8.33
2023-01-18T18:50:09.577Z,9.00
2023-01-18T18:52:35.737Z,9.80
2023-01-18T18:55:01.878Z,9.60
2023-01-18T18:57:28.922Z,11.03
2023-01-18T18:59:55.292Z,9.77
2023-01-18T19:02:22.225Z,9.87
2023-01-18T19:04:48.467Z,9.43
2023-01-18T19:07:16.510Z,9.00
2023-01-18T19:09:42.670Z,9.37
2023-01-18T19:12:08.844Z,9.60
2023-01-18T19:14:34.992Z,10.20
2023-01-18T19:17:01.499Z,10.10
2023-01-18T19:19:28.012Z,10.17
2023-01-18T19:21:54.181Z,8.80
2023-01-18T19:24:20.310Z,10.07
2023-01-18T19:26:46.718Z,11.10
2023-01-18T19:29:12.875Z,9.70
2023-01-18T19:31:39.224Z,10.00
2023-01-18T19:34:06.194Z,10.10
2023-01-18T19:36:33.311Z,10.90
2023-01-18T19:39:01.355Z,10.87
2023-01-18T19:41:29.773Z,10.40
2023-01-18T19:43:56.290Z,9.40
2023-01-18T19:46:22.497Z,9.60
2023-01-18T19:48:48.812Z,9.97
2023-01-18T19:51:22.314Z,9.73
2023-01-18T19:53:52.221Z,9.37
2023-01-18T19:56:18.561Z,9.57
2023-01-18T19:58:44.950Z,9.37
2023-01-18T20:01:23.131Z,8.87
2023-01-18T20:03:56.697Z,8.90
2023-01-18T20:06:23.034Z,9.50
2023-01-18T20:08:50.758Z,9.70
2023-01-18T20:11:17.122Z,10.23
2023-01-18T20:13:48.773Z,9.57
2023-01-18T20:16:17.070Z,11.03
2023-01-18T20:18:43.540Z,9.63
2023-01-18T20:21:13.426Z,9.60
2023-01-18T20:23:42.922Z,9.13
2023-01-18T20:26:11.009Z,8.83
2023-01-18T20:28:37.228Z,8.07
2023-01-18T20:31:05.267Z,8.37
2023-01-18T20:33:34.539Z,8.47
2023-01-18T20:36:02.339Z,8.50
2023-01-18T20:38:28.929Z,8.10
2023-01-18T20:40:55.452Z,8.40
2023-01-18T20:43:21.609Z,8.03
2023-01-18T20:45:47.795Z,7.97
2023-01-18T20:48:14.319Z,8.33
2023-01-18T20:50:40.859Z,8.03
2023-01-18T20:53:07.129Z,7.87
2023-01-18T20:55:33.328Z,7.80
2023-01-18T20:57:59.706Z,7.50
2023-01-18T21:00:25.918Z,8.33
2023-01-18T21:02:52.136Z,8.17
2023-01-18T21:05:18.366Z,8.47
2023-01-18T21:07:44.492Z,7.63
2023-01-18T21:10:11.091Z,8.47
2023-01-18T21:12:37.440Z,7.40
2023-01-18T21:15:08.450Z,8.23
2023-01-18T21:17:35.893Z,7.37
2023-01-18T21:20:03.155Z,7.73
2023-01-18T21:22:29.325Z,7.30
2023-01-18T21:24:57.914Z,8.17
2023-01-18T21:27:25.754Z,7.20
2023-01-18T21:29:53.315Z,7.43
2023-01-18T21:32:19.568Z,7.87
2023-01-18T21:34:45.680Z,7.87
2023-01-18T21:37:12.235Z,8.00
2023-01-18T21:39:38.358Z,8.10
2023-01-18T21:42:22.715Z,7.83
2023-01-18T21:45:07.329Z,8.13
2023-01-18T21:47:33.812Z,7.80
2023-01-18T21:50:18.894Z,7.80
2023-01-18T21:53:03.528Z,8.13
2023-01-18T21:55:29.747Z,7.77
2023-01-18T21:58:14.435Z,8.07
2023-01-18T22:00:41.450Z,7.97
2023-01-18T22:03:08.965Z,7.73
2023-01-18T22:05:35.153Z,7.93
2023-01-18T22:08:01.944Z,7.77
2023-01-18T22:10:28.341Z,7.67
2023-01-18T22:12:54.765Z,7.90
2023-01-18T22:15:22.470Z,8.00
2023-01-18T22:17:48.858Z,7.40
2023-01-18T22:20:15.943Z,8.30
2023-01-18T22:22:42.070Z,8.00
2023-01-18T22:25:08.905Z,7.63
2023-01-18T22:27:35.082Z,8.53
2023-01-18T22:30:01.788Z,10.25
2023-01-18T22:32:27.943Z,8.60
2023-01-18T22:34:54.188Z,8.47
2023-01-18T22:37:20.344Z,8.80
2023-01-18T22:39:46.473Z,8.30
2023-01-18T22:42:12.640Z,8.70
2023-01-18T22:44:38.763Z,8.47
2023-01-18T22:47:04.932Z,8.03
2023-01-18T22:49:31.049Z,8.63
2023-01-18T22:51:57.165Z,7.87
2023-01-18T22:54:23.298Z,8.33
2023-01-18T22:56:49.455Z,8.80
2023-01-18T22:59:16.021Z,8.40
2023-01-18T23:01:42.424Z,9.27
2023-01-18T23:04:09.671Z,8.07
2023-01-18T23:06:44.625Z,8.93
2023-01-18T23:09:11.753Z,8.50
2023-01-18T23:11:38.450Z,8.40
2023-01-18T23:14:23.505Z,8.50
2023-01-18T23:17:08.667Z,8.60
2023-01-18T23:19:35.220Z,8.30
2023-01-18T23:22:07.716Z,8.83
2023-01-18T23:24:36.066Z,8.90
2023-01-18T23:27:08.884Z,8.43
2023-01-18T23:29:35.117Z,8.13
2023-01-18T23:32:01.778Z,7.57
2023-01-18T23:34:27.926Z,7.90
2023-01-18T23:36:56.867Z,8.83
2023-01-18T23:39:41.486Z,8.70
2023-01-18T23:42:25.939Z,8.30
2023-01-18T23:45:10.609Z,8.07
2023-01-18T23:47:55.249Z,7.87
2023-01-18T23:50:40.668Z,8.27
2023-01-18T23:53:31.344Z,8.53
2023-01-18T23:55:58.006Z,8.57
2023-01-18T23:58:24.778Z,7.80
